Flight Track Log - Related Links

Times and Time Zones

All times are in EDT time to prevent confusion due to time zone crossing. See the SWA920 flight status page for this flight to view local times or setup timezone preferences in your user account.

Time Position Orientation Groundspeed Altitude Reporting Facility
EDT Latitude Longitude Course Direction KTS MPH feet Rate Location/Type
Thu 05:52:48 PM 36.1667 -86.6167 39° Northeast 186 214 2,700  Level Nashville TRACON
Thu 05:53:48 PM 36.1667 -86.5500 90° East 255 293 5,000 2,950 Climbing Nashville TRACON
Thu 05:54:48 PM 36.1500 -86.4500 102° East 291 335 8,600 3,371 Climbing Nashville TRACON
Thu 05:55:33 PM 36.1281 -86.3739 110° East 359 413 10,900 2,343 Climbing Memphis Center
Thu 05:56:33 PM 36.1028 -86.2442 104° East 357 411 12,700 2,400 Climbing Memphis Center
Thu 05:57:33 PM 36.0750 -86.0992 103° East 409 471 15,700 2,585 Climbing Memphis Center
Thu 05:59:41 PM 36.0500 -85.7850 96° East 515 593 20,800 2,298 Climbing Atlanta Center
Thu 06:00:41 PM 36.0378 -85.6153 95° East 491 565 22,900 2,450 Climbing Atlanta Center
Thu 06:01:41 PM 36.0189 -85.4431 98° East 496 571 25,700 2,900 Climbing Atlanta Center
Thu 06:02:41 PM 35.9433 -85.3083 125° Southeast 469 540 28,700 2,350 Climbing Atlanta Center
Thu 06:03:41 PM 35.8547 -85.1789 130° Southeast 475 547 30,400 1,600 Climbing Atlanta Center
Thu 06:04:41 PM 35.7642 -85.0469 130° Southeast 496 571 31,900 1,300 Climbing Atlanta Center
Thu 06:05:41 PM 35.6692 -84.9103 131° Southeast 510 587 33,000 1,500 Climbing Atlanta Center
Thu 06:06:41 PM 35.5639 -84.7536 130° Southeast 532 612 34,900 1,050 Climbing Atlanta Center
Thu 06:07:41 PM 35.4667 -84.6150 131° Southeast 532 612 35,100 1,000 Climbing Atlanta Center
Thu 06:08:41 PM 35.3711 -84.4794 131° Southeast 532 612 36,900 950 Climbing Atlanta Center
Thu 06:09:41 PM 35.2756 -84.3389 130° Southeast 532 612 37,000 50 Climbing Atlanta Center
Thu 06:10:41 PM 35.1778 -84.2014 131° Southeast 532 612 37,000  Level Atlanta Center
Thu 06:11:41 PM 35.0819 -84.0617 130° Southeast 532 612 37,000  Level Atlanta Center
Thu 06:12:41 PM 34.9839 -83.9247 131° Southeast 532 612 37,000  Level Atlanta Center
Thu 06:13:41 PM 34.8875 -83.7831 130° Southeast 532 612 37,000 -250 Level Atlanta Center
Thu 06:14:41 PM 34.7911 -83.6467 131° Southeast 532 612 36,500 -650 Descending Atlanta Center
Thu 06:15:41 PM 34.7031 -83.5283 132° Southeast 526 605 35,700 -750 Descending Atlanta Center
Thu 06:16:41 PM 34.6064 -83.3903 130° Southeast 531 611 35,000 -350 Descending Atlanta Center
Thu 06:17:41 PM 34.5075 -83.2547 131° Southeast 539 620 35,000  Level Atlanta Center
Thu 06:18:41 PM 34.4086 -83.1172 131° Southeast 533 613 35,000 -500 Level Atlanta Center
Thu 06:19:41 PM 34.3114 -82.9825 131° Southeast 533 613 34,000 -700 Descending Atlanta Center
Thu 06:20:41 PM 34.2164 -82.8506 131° Southeast 527 606 33,600 -700 Descending Atlanta Center
Thu 06:21:41 PM 34.1106 -82.7042 131° Southeast 528 608 32,600 -950 Descending Atlanta Center
Thu 06:22:41 PM 34.0089 -82.5678 132° Southeast 535 616 31,700 -950 Descending Atlanta Center
Thu 06:23:41 PM 33.9069 -82.4319 132° Southeast 540 621 30,700 -850 Descending Atlanta Center
Thu 06:24:41 PM 33.8092 -82.3011 132° Southeast 532 612 30,000 -884 Descending Atlanta Center
Thu 06:27:52 PM 33.5981 -81.8128 117° Southeast 547 629 27,000 -789 Descending Jacksonville Center
Thu 06:28:52 PM 33.5486 -81.6489 110° East 541 623 26,700 -700 Descending Jacksonville Center
Thu 06:29:52 PM 33.4947 -81.4878 112° Southeast 526 605 25,600 -1,800 Descending Jacksonville Center
Thu 06:30:52 PM 33.4447 -81.3319 111° Southeast 514 592 23,100 -2,700 Descending Jacksonville Center
Thu 06:31:52 PM 33.3950 -81.1783 111° Southeast 502 578 20,200 -2,700 Descending Jacksonville Center
Thu 06:32:52 PM 33.3469 -81.0303 111° Southeast 491 565 17,700 -2,550 Descending Jacksonville Center
Thu 06:33:52 PM 33.3008 -80.8894 111° Southeast 471 542 15,100 -2,550 Descending Jacksonville Center
Thu 06:34:52 PM 33.2592 -80.7589 111° Southeast 443 510 12,600 -2,050 Descending Jacksonville Center
Thu 06:35:52 PM 33.2194 -80.6381 111° Southeast 412 474 11,000 -950 Descending Jacksonville Center
Thu 06:36:52 PM 33.1819 -80.5250 112° Southeast 385 443 10,700 -650 Descending Jacksonville Center
Thu 06:37:52 PM 33.1486 -80.4239 111° Southeast 352 405 9,700 -1,100 Descending Jacksonville Center
Thu 06:38:52 PM 33.0850 -80.3689 144° Southeast 294 338 8,500 -1,300 Descending Jacksonville Center
Thu 06:39:52 PM 33.0075 -80.3586 174° South 262 302 7,100 -1,450 Descending Jacksonville Center
Thu 06:40:52 PM 32.9319 -80.3458 172° South 267 307 5,600 -1,400 Descending Jacksonville Center
Thu 06:41:52 PM 32.8700 -80.3747 201° Southwest 253 291 4,300 -1,900 Descending Jacksonville Center
Thu 06:42:52 PM 32.8297 -80.4425 235° Southwest 232 267 1,800 -1,400 Descending Jacksonville Center
Thu 06:43:52 PM 32.7806 -80.3944 141° Southeast 186 214 1,500 -300 Descending Jacksonville Center
Thu 06:45:00 PM 32.8294 -80.2486 68° East  Level Estimated
Thu 06:52:00 PM 32.8986 -80.0405 68° East  Level Estimated
Thu 06:53:00 PM 32.8986 -80.0405 121° Southeast  Level Estimated
Thu 06:54:00 PM 32.8986 -80.0405 121° Southeast  Level Estimated
Thu 06:55:00 PM 32.8986 -80.0405 121° Southeast  Level Estimated
Thu 06:56:00 PM 32.8986 -80.0405 121° Southeast  Level Estimated
Thu 06:57:00 PM 32.8986 -80.0405 121° Southeast  Level Estimated
Thu 06:58:00 PM 32.8986 -80.0405 121° Southeast  Level Estimated
Thu 06:59:00 PM 32.8986 -80.0405 121° Southeast  Level Estimated
Thu 07:00:00 PM 32.8986 -80.0405 121° Southeast  Level Estimated

Login

Don't have an account? Register now (free) for customized features, flight alerts, and more!